Time;durP1;ratioP1;P1;durP2;ratioP2;P2;SDS_P1;SDS_P2;PMS_P1;PMS_P2;Temp;Humidity;BMP_temperature;BMP_pressure;BME280_temperature;BME280_humidity;BME280_pressure;Samples;Min_cycle;Max_cycle;Signal;HPM_P1;HPM_P2
2022/10/15 00:00:25;;;;;;;;;;;13.30;94.10;;;;;;4999472;28;20393;-70
2022/10/15 00:02:50;;;;;;;;;;;13.30;94.10;;;;;;4995288;28;19918;-69
2022/10/15 00:05:16;;;;;;;;;;;13.30;94.10;;;;;;4990084;28;19917;-69
2022/10/15 00:07:41;;;;;;;;;;;13.30;94.20;;;;;;4985309;28;20299;-70
2022/10/15 00:10:07;;;;;;;;;;;13.30;94.20;;;;;;4988619;28;19922;-69
2022/10/15 00:12:32;;;;;;;;;;;13.30;94.20;;;;;;4990622;28;19922;-69
2022/10/15 00:14:58;;;;;;;;;;;13.30;94.30;;;;;;4987552;28;20460;-69
2022/10/15 00:17:23;;;;;;;;;;;13.30;94.30;;;;;;4990792;28;19953;-70
2022/10/15 00:19:49;;;;;;;;;;;13.20;94.30;;;;;;4989605;28;20200;-70
2022/10/15 00:22:14;;;;;;;;;;;13.20;94.30;;;;;;4986264;28;20378;-69
2022/10/15 00:24:40;;;;;;;;;;;13.20;94.30;;;;;;4989298;28;19921;-70
2022/10/15 00:27:05;;;;;;;;;;;13.20;94.30;;;;;;4987246;28;19981;-70
2022/10/15 00:29:31;;;;;;;;;;;13.20;94.30;;;;;;4993936;28;19972;-70
2022/10/15 00:31:56;;;;;;;;;;;13.20;94.30;;;;;;4986489;28;19924;-69
2022/10/15 00:34:22;;;;;;;;;;;13.20;94.30;;;;;;4987503;28;20008;-69
2022/10/15 00:36:48;;;;;;;;;;;13.10;94.30;;;;;;4987702;28;19957;-70
2022/10/15 00:39:14;;;;;;;;;;;13.20;94.40;;;;;;4990658;28;19948;-69
2022/10/15 00:41:40;;;;;;;;;;;13.10;94.30;;;;;;4993290;28;19960;-70
2022/10/15 00:44:21;;;;;;;;;;;13.10;94.40;;;;;;4988590;28;19921;-69
2022/10/15 00:47:02;;;;;;;;;;;13.10;94.30;;;;;;4995971;28;20437;-70
2022/10/15 00:49:30;;;;;;;;;;;13.10;94.40;;;;;;4985764;28;20403;-69
2022/10/15 00:51:58;;;;;;;;;;;13.10;94.40;;;;;;4989726;28;20003;-69
2022/10/15 00:54:25;;;;;;;;;;;13.10;94.40;;;;;;4993447;28;19929;-69
2022/10/15 00:56:50;;;;;;;;;;;13.10;94.40;;;;;;4993633;28;20448;-69
2022/10/15 00:59:17;;;;;;;;;;;13.10;94.40;;;;;;4993825;28;19925;-69
2022/10/15 01:01:43;;;;;;;;;;;13.00;94.40;;;;;;4993212;28;19914;-70
2022/10/15 01:04:09;;;;;;;;;;;13.00;94.40;;;;;;4997236;28;19967;-69
2022/10/15 01:06:35;;;;;;;;;;;13.10;94.50;;;;;;4988233;28;19914;-70
2022/10/15 01:09:00;;;;;;;;;;;13.00;94.40;;;;;;4984943;28;19925;-69
2022/10/15 01:11:39;;;;;;;;;;;13.00;94.50;;;;;;4989261;28;19921;-70
2022/10/15 01:14:20;;;;;;;;;;;13.00;94.50;;;;;;4988554;28;19987;-70
2022/10/15 01:16:51;;;;;;;;;;;13.00;94.50;;;;;;4991226;28;19920;-69
2022/10/15 01:19:16;;;;;;;;;;;13.00;94.50;;;;;;4989919;28;19922;-70
2022/10/15 01:21:49;;;;;;;;;;;13.00;94.50;;;;;;4986709;28;19944;-69
2022/10/15 01:24:17;;;;;;;;;;;13.00;94.50;;;;;;4985140;28;19952;-69
2022/10/15 01:26:49;;;;;;;;;;;13.00;94.50;;;;;;4996742;28;20527;-70
2022/10/15 01:29:14;;;;;;;;;;;12.90;94.40;;;;;;4986530;28;20018;-70
2022/10/15 01:31:48;;;;;;;;;;;12.90;94.50;;;;;;4987379;28;20207;-70
2022/10/15 01:34:19;;;;;;;;;;;12.90;94.50;;;;;;4986530;28;20019;-70
2022/10/15 01:36:56;;;;;;;;;;;12.90;94.50;;;;;;4991097;28;19913;-69
2022/10/15 01:39:26;;;;;;;;;;;12.90;94.50;;;;;;4986931;28;19999;-69
2022/10/15 01:41:54;;;;;;;;;;;12.90;94.50;;;;;;4993878;28;20348;-69
2022/10/15 01:44:29;;;;;;;;;;;12.90;94.40;;;;;;4993517;28;19913;-69
2022/10/15 01:47:00;;;;;;;;;;;12.90;94.40;;;;;;4997120;28;19944;-69
2022/10/15 01:49:29;;;;;;;;;;;12.90;94.40;;;;;;4985230;28;19920;-69
2022/10/15 01:51:55;;;;;;;;;;;12.90;94.50;;;;;;4985176;28;19925;-69
2022/10/15 01:54:22;;;;;;;;;;;12.90;94.50;;;;;;5000389;28;19917;-70
2022/10/15 01:56:48;;;;;;;;;;;12.90;94.50;;;;;;4992156;28;19918;-70
2022/10/15 01:59:25;;;;;;;;;;;12.90;94.40;;;;;;4997913;28;19917;-70
2022/10/15 02:01:50;;;;;;;;;;;12.90;94.50;;;;;;4994258;28;19918;-69
2022/10/15 02:04:17;;;;;;;;;;;12.90;94.40;;;;;;5006246;28;19913;-69
2022/10/15 02:06:43;;;;;;;;;;;12.90;94.40;;;;;;4995438;28;20311;-70
2022/10/15 02:09:14;;;;;;;;;;;12.90;94.40;;;;;;4994391;28;20029;-69
2022/10/15 02:11:45;;;;;;;;;;;12.90;94.40;;;;;;4993318;28;19949;-69
2022/10/15 02:14:15;;;;;;;;;;;12.90;94.30;;;;;;5001429;28;20649;-69
2022/10/15 02:16:43;;;;;;;;;;;12.90;94.40;;;;;;4993134;28;19927;-70
2022/10/15 02:19:09;;;;;;;;;;;12.90;94.40;;;;;;4991737;28;19928;-70
2022/10/15 02:21:37;;;;;;;;;;;12.90;94.40;;;;;;4995103;28;19918;-70
2022/10/15 02:24:12;;;;;;;;;;;12.90;94.40;;;;;;4993646;28;20112;-70
2022/10/15 02:26:39;;;;;;;;;;;12.90;94.40;;;;;;4988153;28;20009;-69
2022/10/15 02:29:06;;;;;;;;;;;12.90;94.40;;;;;;4994471;28;19921;-70
2022/10/15 02:31:33;;;;;;;;;;;12.80;94.30;;;;;;4991315;28;19957;-70
2022/10/15 02:34:02;;;;;;;;;;;12.90;94.30;;;;;;4991166;28;20666;-69
2022/10/15 02:36:28;;;;;;;;;;;12.80;94.30;;;;;;5001144;28;19917;-70
2022/10/15 02:38:54;;;;;;;;;;;12.90;94.30;;;;;;5019320;28;19964;-69
2022/10/15 02:41:20;;;;;;;;;;;12.90;94.30;;;;;;4992882;28;19914;-70
2022/10/15 02:43:46;;;;;;;;;;;12.90;94.30;;;;;;4988454;28;19917;-70
2022/10/15 02:46:13;;;;;;;;;;;12.90;94.30;;;;;;4992994;28;20016;-70
2022/10/15 02:48:38;;;;;;;;;;;12.80;94.30;;;;;;4990386;28;19976;-69
2022/10/15 02:51:04;;;;;;;;;;;12.90;94.40;;;;;;4992667;28;19929;-69
2022/10/15 02:53:29;;;;;;;;;;;12.90;94.30;;;;;;4987071;28;19924;-69
2022/10/15 02:55:55;;;;;;;;;;;12.90;94.40;;;;;;4995111;28;20630;-69
2022/10/15 02:58:20;;;;;;;;;;;12.80;94.40;;;;;;4991656;28;19922;-69
2022/10/15 03:00:46;;;;;;;;;;;12.90;94.30;;;;;;4990641;28;19914;-69
2022/10/15 03:03:11;;;;;;;;;;;12.90;94.20;;;;;;4992521;28;19918;-70
2022/10/15 03:05:37;;;;;;;;;;;12.90;94.30;;;;;;4990133;28;19913;-70
2022/10/15 03:08:02;;;;;;;;;;;12.90;94.20;;;;;;4987543;28;19961;-70
2022/10/15 03:10:28;;;;;;;;;;;12.90;94.30;;;;;;4992878;28;19926;-70
2022/10/15 03:12:53;;;;;;;;;;;12.90;94.30;;;;;;4996906;28;19917;-70
2022/10/15 03:15:19;;;;;;;;;;;12.90;94.30;;;;;;4989898;28;20493;-70
2022/10/15 03:17:45;;;;;;;;;;;12.90;94.30;;;;;;4997224;28;20375;-70
2022/10/15 03:20:10;;;;;;;;;;;12.90;94.30;;;;;;4991017;28;20370;-70
2022/10/15 03:22:36;;;;;;;;;;;12.90;94.30;;;;;;4993587;28;19922;-70
2022/10/15 03:25:01;;;;;;;;;;;12.90;94.20;;;;;;4998253;28;19918;-70
2022/10/15 03:27:27;;;;;;;;;;;12.90;94.20;;;;;;4997150;28;19914;-70
2022/10/15 03:29:52;;;;;;;;;;;12.90;94.30;;;;;;4993028;28;20455;-71
2022/10/15 03:32:18;;;;;;;;;;;12.80;94.30;;;;;;5001123;28;19921;-70
2022/10/15 03:34:43;;;;;;;;;;;12.80;94.30;;;;;;4986470;28;19921;-70
2022/10/15 03:37:09;;;;;;;;;;;12.80;94.40;;;;;;4989146;28;20498;-71
2022/10/15 03:39:34;;;;;;;;;;;12.90;94.40;;;;;;4991245;28;19917;-71
2022/10/15 03:42:00;;;;;;;;;;;12.80;94.40;;;;;;4995684;28;19925;-70
2022/10/15 03:44:25;;;;;;;;;;;12.80;94.40;;;;;;4989136;28;19928;-70
2022/10/15 03:46:51;;;;;;;;;;;12.80;94.40;;;;;;4992502;28;19941;-70
2022/10/15 03:49:16;;;;;;;;;;;12.80;94.40;;;;;;4993072;28;19914;-69
2022/10/15 03:51:42;;;;;;;;;;;12.80;94.40;;;;;;4995790;28;19946;-69
2022/10/15 03:54:07;;;;;;;;;;;12.80;94.50;;;;;;4995156;28;19930;-70
2022/10/15 03:56:33;;;;;;;;;;;12.80;94.50;;;;;;4989516;28;19956;-70
2022/10/15 03:58:58;;;;;;;;;;;12.80;94.50;;;;;;4998837;28;20020;-69
2022/10/15 04:01:24;;;;;;;;;;;12.80;94.50;;;;;;4992520;28;20409;-70
2022/10/15 04:03:53;;;;;;;;;;;12.80;94.50;;;;;;4990800;28;19940;-70
2022/10/15 04:06:18;;;;;;;;;;;12.70;94.50;;;;;;4986811;28;19928;-70
2022/10/15 04:08:44;;;;;;;;;;;12.70;94.50;;;;;;5001810;28;20283;-70
2022/10/15 04:11:09;;;;;;;;;;;12.70;94.50;;;;;;4997552;28;20007;-70
2022/10/15 04:13:35;;;;;;;;;;;12.70;94.50;;;;;;4993425;28;19983;-70
2022/10/15 04:16:03;;;;;;;;;;;12.70;94.50;;;;;;4994505;28;19918;-70
2022/10/15 04:18:28;;;;;;;;;;;12.70;94.50;;;;;;4988658;28;20764;-70
2022/10/15 04:20:57;;;;;;;;;;;12.70;94.50;;;;;;4992273;28;19918;-70
2022/10/15 04:23:22;;;;;;;;;;;12.70;94.50;;;;;;4989856;28;20556;-69
2022/10/15 04:25:48;;;;;;;;;;;12.70;94.50;;;;;;4992986;28;19917;-69
2022/10/15 04:28:13;;;;;;;;;;;12.60;94.50;;;;;;4991701;28;19924;-69
2022/10/15 04:30:39;;;;;;;;;;;12.70;94.50;;;;;;4993808;28;19914;-70
2022/10/15 04:33:04;;;;;;;;;;;12.60;94.50;;;;;;4991695;28;19928;-69
2022/10/15 04:35:30;;;;;;;;;;;12.70;94.50;;;;;;5000699;28;19960;-70
2022/10/15 04:37:58;;;;;;;;;;;12.70;94.50;;;;;;4986945;28;19956;-70
2022/10/15 04:40:24;;;;;;;;;;;12.60;94.50;;;;;;4987755;28;19914;-70
2022/10/15 04:42:49;;;;;;;;;;;12.60;94.50;;;;;;4993258;28;19929;-69
2022/10/15 04:45:15;;;;;;;;;;;12.60;94.50;;;;;;4995447;28;20315;-70
2022/10/15 04:47:40;;;;;;;;;;;12.60;94.50;;;;;;4989191;28;19924;-69
2022/10/15 04:50:06;;;;;;;;;;;12.60;94.50;;;;;;4988196;28;19968;-70
2022/10/15 04:52:33;;;;;;;;;;;12.60;94.50;;;;;;4984492;28;20546;-70
2022/10/15 04:54:58;;;;;;;;;;;12.60;94.40;;;;;;4992923;28;19925;-70
2022/10/15 04:57:25;;;;;;;;;;;12.60;94.40;;;;;;4988338;28;19941;-70
2022/10/15 04:59:51;;;;;;;;;;;12.60;94.40;;;;;;4991923;28;19991;-70
2022/10/15 05:02:17;;;;;;;;;;;12.70;94.40;;;;;;4994240;28;20402;-70
2022/10/15 05:04:42;;;;;;;;;;;12.70;94.50;;;;;;4987131;28;19920;-70
2022/10/15 05:07:08;;;;;;;;;;;12.70;94.40;;;;;;4989269;28;19914;-70
2022/10/15 05:09:34;;;;;;;;;;;12.70;94.40;;;;;;4989534;28;19921;-70
2022/10/15 05:11:59;;;;;;;;;;;12.70;94.40;;;;;;4994768;28;19963;-70
2022/10/15 05:14:25;;;;;;;;;;;12.70;94.40;;;;;;4990754;28;19921;-70
2022/10/15 05:16:50;;;;;;;;;;;12.60;94.30;;;;;;4996718;28;20005;-69
2022/10/15 05:19:16;;;;;;;;;;;12.70;94.30;;;;;;4985226;28;19956;-70
2022/10/15 05:21:42;;;;;;;;;;;12.70;94.40;;;;;;4992292;28;20005;-70
2022/10/15 05:24:08;;;;;;;;;;;12.70;94.40;;;;;;4983943;28;19941;-69
2022/10/15 05:26:33;;;;;;;;;;;12.70;94.40;;;;;;4987540;28;19909;-70
2022/10/15 05:28:59;;;;;;;;;;;12.70;94.40;;;;;;4993137;28;19972;-70
2022/10/15 05:31:27;;;;;;;;;;;12.70;94.40;;;;;;4997146;28;20446;-70
2022/10/15 05:33:53;;;;;;;;;;;12.70;94.40;;;;;;4991140;28;20410;-70
2022/10/15 05:36:20;;;;;;;;;;;12.70;94.40;;;;;;4996113;28;19918;-70
2022/10/15 05:38:46;;;;;;;;;;;12.70;94.40;;;;;;4984265;28;19917;-70
2022/10/15 05:41:12;;;;;;;;;;;12.60;94.40;;;;;;4988108;28;19913;-70
2022/10/15 05:43:37;;;;;;;;;;;12.70;94.40;;;;;;4992158;28;19984;-70
2022/10/15 05:46:03;;;;;;;;;;;12.60;94.40;;;;;;4989332;28;19914;-70
2022/10/15 05:48:28;;;;;;;;;;;12.60;94.40;;;;;;4988473;28;19920;-70
2022/10/15 05:50:59;;;;;;;;;;;12.60;94.40;;;;;;4984044;28;19928;-70
2022/10/15 05:53:25;;;;;;;;;;;12.60;94.40;;;;;;4994975;28;20377;-70
2022/10/15 05:55:51;;;;;;;;;;;12.60;94.40;;;;;;4985846;28;19921;-70
2022/10/15 05:58:17;;;;;;;;;;;12.60;94.40;;;;;;4986970;28;20450;-70
2022/10/15 06:00:42;;;;;;;;;;;12.60;94.40;;;;;;4991593;28;19917;-70
2022/10/15 06:03:10;;;;;;;;;;;12.60;94.40;;;;;;4993154;28;19920;-70
2022/10/15 06:05:36;;;;;;;;;;;12.60;94.40;;;;;;4981085;28;19976;-69
2022/10/15 06:08:01;;;;;;;;;;;12.60;94.50;;;;;;4990544;28;20656;-70
2022/10/15 06:10:27;;;;;;;;;;;12.60;94.50;;;;;;4984476;28;19933;-70
2022/10/15 06:12:52;;;;;;;;;;;12.60;94.40;;;;;;4993061;28;19918;-69
2022/10/15 06:15:18;;;;;;;;;;;12.60;94.40;;;;;;4986069;28;20000;-70
2022/10/15 06:17:44;;;;;;;;;;;12.60;94.50;;;;;;4993747;28;19948;-70
2022/10/15 06:20:10;;;;;;;;;;;12.60;94.40;;;;;;4987287;28;19910;-69
2022/10/15 06:22:35;;;;;;;;;;;12.60;94.40;;;;;;4988245;28;19917;-70
2022/10/15 06:25:01;;;;;;;;;;;12.60;94.40;;;;;;4987359;28;19914;-70
2022/10/15 06:27:26;;;;;;;;;;;12.60;94.40;;;;;;4993324;28;19979;-70
2022/10/15 06:29:52;;;;;;;;;;;12.60;94.40;;;;;;4991594;28;19914;-70
2022/10/15 06:32:17;;;;;;;;;;;12.60;94.40;;;;;;4988921;28;19938;-70
2022/10/15 06:34:43;;;;;;;;;;;12.60;94.40;;;;;;4996659;28;19917;-70
2022/10/15 06:37:09;;;;;;;;;;;12.70;94.40;;;;;;4983762;28;20061;-71
2022/10/15 06:39:34;;;;;;;;;;;12.70;94.40;;;;;;4988617;28;19968;-70
2022/10/15 06:41:59;;;;;;;;;;;12.70;94.40;;;;;;4989770;28;19944;-70
2022/10/15 06:44:25;;;;;;;;;;;12.70;94.40;;;;;;4995626;28;19914;-71
2022/10/15 06:46:50;;;;;;;;;;;12.70;94.40;;;;;;4991353;28;20565;-70
2022/10/15 06:49:16;;;;;;;;;;;12.70;94.40;;;;;;4994658;28;19921;-71
2022/10/15 06:51:41;;;;;;;;;;;12.70;94.40;;;;;;4991463;28;19922;-70
2022/10/15 06:54:07;;;;;;;;;;;12.70;94.40;;;;;;4995638;28;19921;-70
2022/10/15 06:56:32;;;;;;;;;;;12.70;94.40;;;;;;4987257;28;19937;-71
2022/10/15 06:58:58;;;;;;;;;;;12.70;94.40;;;;;;4991651;28;20032;-71
2022/10/15 07:01:23;;;;;;;;;;;12.70;94.30;;;;;;4989929;28;19913;-70
2022/10/15 07:03:49;;;;;;;;;;;12.70;94.40;;;;;;4994848;28;19913;-70
2022/10/15 07:06:15;;;;;;;;;;;12.70;94.40;;;;;;4997207;28;19921;-70
2022/10/15 07:08:40;;;;;;;;;;;12.70;94.40;;;;;;4990176;28;20579;-70
2022/10/15 07:11:08;;;;;;;;;;;12.70;94.40;;;;;;4997569;28;19961;-70
2022/10/15 07:13:33;;;;;;;;;;;12.70;94.40;;;;;;4991364;28;19922;-70
2022/10/15 07:16:06;;;;;;;;;;;12.70;94.40;;;;;;4990686;28;20365;-70
2022/10/15 07:18:32;;;;;;;;;;;12.70;94.40;;;;;;4987574;28;19940;-70
2022/10/15 07:20:57;;;;;;;;;;;12.70;94.30;;;;;;4996325;28;20369;-70
2022/10/15 07:23:22;;;;;;;;;;;12.70;94.40;;;;;;4988151;28;20617;-70
2022/10/15 07:25:48;;;;;;;;;;;12.70;94.40;;;;;;4997082;28;20484;-70
2022/10/15 07:28:13;;;;;;;;;;;12.70;94.30;;;;;;4991455;28;19921;-70
2022/10/15 07:30:39;;;;;;;;;;;12.70;94.40;;;;;;4988096;28;20025;-70
2022/10/15 07:33:04;;;;;;;;;;;12.70;94.30;;;;;;4990355;28;19992;-70
2022/10/15 07:35:30;;;;;;;;;;;12.70;94.30;;;;;;4995175;28;19949;-70
2022/10/15 07:37:59;;;;;;;;;;;12.70;94.30;;;;;;4990781;28;19972;-70
2022/10/15 07:40:24;;;;;;;;;;;12.70;94.30;;;;;;4997538;28;19925;-70
2022/10/15 07:42:53;;;;;;;;;;;12.70;94.20;;;;;;4998741;28;19913;-70
2022/10/15 07:45:19;;;;;;;;;;;12.70;94.20;;;;;;4988049;28;19977;-70
2022/10/15 07:47:44;;;;;;;;;;;12.80;94.20;;;;;;4993635;28;19910;-70
2022/10/15 07:50:10;;;;;;;;;;;12.80;94.20;;;;;;4991850;28;20399;-70
2022/10/15 07:52:35;;;;;;;;;;;12.80;94.20;;;;;;4987412;28;19920;-70
2022/10/15 07:55:01;;;;;;;;;;;12.80;94.20;;;;;;4991176;28;19917;-70
2022/10/15 07:57:26;;;;;;;;;;;12.80;94.10;;;;;;4998341;28;20004;-70
2022/10/15 07:59:52;;;;;;;;;;;12.80;94.30;;;;;;4990183;28;20563;-70
2022/10/15 08:02:17;;;;;;;;;;;12.90;94.20;;;;;;4991490;28;20029;-71
2022/10/15 08:04:43;;;;;;;;;;;12.90;94.40;;;;;;4994945;28;19976;-70
2022/10/15 08:07:08;;;;;;;;;;;12.90;94.20;;;;;;4992910;28;19924;-71
2022/10/15 08:09:34;;;;;;;;;;;13.00;94.20;;;;;;4990079;28;19921;-69
2022/10/15 08:11:59;;;;;;;;;;;13.00;94.30;;;;;;4992565;28;20363;-70
2022/10/15 08:14:24;;;;;;;;;;;13.00;94.30;;;;;;4991533;28;19922;-70
2022/10/15 08:16:50;;;;;;;;;;;13.10;94.30;;;;;;4992061;28;20268;-69
2022/10/15 08:19:16;;;;;;;;;;;13.00;94.20;;;;;;4994387;28;19913;-70
2022/10/15 08:21:42;;;;;;;;;;;13.10;94.30;;;;;;4992221;28;20465;-70
2022/10/15 08:24:08;;;;;;;;;;;13.10;94.00;;;;;;4992345;28;19914;-69
2022/10/15 08:26:33;;;;;;;;;;;13.10;94.00;;;;;;4994708;28;20390;-70
2022/10/15 08:28:59;;;;;;;;;;;13.10;94.10;;;;;;4992600;28;19920;-70
2022/10/15 08:31:24;;;;;;;;;;;13.20;94.30;;;;;;4985627;28;20407;-70
2022/10/15 08:33:50;;;;;;;;;;;13.20;94.20;;;;;;4994065;28;20687;-70
2022/10/15 08:36:15;;;;;;;;;;;13.20;94.20;;;;;;4990110;28;19925;-70
2022/10/15 08:38:41;;;;;;;;;;;13.20;94.10;;;;;;4997830;28;19943;-70
2022/10/15 08:41:17;;;;;;;;;;;13.30;94.20;;;;;;4994204;28;19918;-70
2022/10/15 08:43:44;;;;;;;;;;;13.30;94.30;;;;;;4994607;28;19918;-70
2022/10/15 08:46:12;;;;;;;;;;;13.30;94.10;;;;;;4991384;28;19918;-70
2022/10/15 08:48:41;;;;;;;;;;;13.30;94.10;;;;;;4995610;28;19914;-69
2022/10/15 08:51:09;;;;;;;;;;;13.40;94.00;;;;;;4988960;28;19945;-70
2022/10/15 08:53:38;;;;;;;;;;;13.40;94.00;;;;;;4991949;28;19960;-70
2022/10/15 08:56:11;;;;;;;;;;;13.40;94.30;;;;;;4990245;28;19925;-70
2022/10/15 08:58:42;;;;;;;;;;;13.40;94.00;;;;;;4988983;28;19926;-69
2022/10/15 09:01:27;;;;;;;;;;;13.40;94.20;;;;;;4989524;28;19949;-69
2022/10/15 09:04:15;;;;;;;;;;;13.40;94.30;;;;;;4990083;28;19922;-70
2022/10/15 09:06:41;;;;;;;;;;;13.50;94.30;;;;;;4989225;28;19918;-69
2022/10/15 09:09:07;;;;;;;;;;;13.50;94.10;;;;;;4988994;28;20421;-69
2022/10/15 09:11:35;;;;;;;;;;;13.50;94.00;;;;;;4991328;28;19917;-69
2022/10/15 09:14:02;;;;;;;;;;;13.50;94.40;;;;;;4996950;28;19949;-69
2022/10/15 09:16:31;;;;;;;;;;;13.60;94.30;;;;;;4988159;28;20005;-70
2022/10/15 09:18:58;;;;;;;;;;;13.60;94.00;;;;;;4991888;28;19956;-69
2022/10/15 09:21:26;;;;;;;;;;;13.70;94.10;;;;;;4988846;28;19933;-69
2022/10/15 09:23:57;;;;;;;;;;;13.70;94.10;;;;;;4994979;28;19929;-69
2022/10/15 09:26:28;;;;;;;;;;;13.70;94.10;;;;;;4997231;28;20362;-69
2022/10/15 09:29:16;;;;;;;;;;;13.80;94.20;;;;;;4988152;28;19918;-68
2022/10/15 09:31:51;;;;;;;;;;;13.80;94.10;;;;;;4993644;28;19992;-69
2022/10/15 09:34:24;;;;;;;;;;;13.80;94.20;;;;;;4989835;28;19921;-69
2022/10/15 09:36:59;;;;;;;;;;;13.80;94.00;;;;;;4988839;28;20036;-70
2022/10/15 09:39:24;;;;;;;;;;;13.80;94.00;;;;;;4991566;28;20551;-69
2022/10/15 09:41:55;;;;;;;;;;;13.90;94.10;;;;;;4996503;28;19917;-69
2022/10/15 09:44:22;;;;;;;;;;;13.90;93.80;;;;;;4992776;28;19917;-70
2022/10/15 09:46:48;;;;;;;;;;;13.90;93.70;;;;;;4991816;28;19952;-69
2022/10/15 09:49:17;;;;;;;;;;;14.00;93.90;;;;;;4990624;28;19918;-69
2022/10/15 09:51:58;;;;;;;;;;;14.00;93.70;;;;;;4986381;28;20283;-69
2022/10/15 09:54:38;;;;;;;;;;;14.10;93.70;;;;;;4989502;28;19945;-69
2022/10/15 09:57:07;;;;;;;;;;;14.10;93.70;;;;;;4995232;28;19920;-69
2022/10/15 09:59:32;;;;;;;;;;;14.10;93.70;;;;;;4999671;28;19918;-69
2022/10/15 10:02:16;;;;;;;;;;;14.10;93.80;;;;;;4998148;28;20662;-69
2022/10/15 10:04:42;;;;;;;;;;;14.20;94.00;;;;;;4985856;28;21487;-69
2022/10/15 10:07:07;;;;;;;;;;;14.20;94.00;;;;;;4997025;28;19929;-69
2022/10/15 10:09:37;;;;;;;;;;;14.30;94.10;;;;;;4991531;28;19921;-69
2022/10/15 10:12:05;;;;;;;;;;;14.30;93.90;;;;;;4985795;28;19914;-68
2022/10/15 10:14:45;;;;;;;;;;;14.30;93.80;;;;;;4986980;28;20529;-69
2022/10/15 10:17:15;;;;;;;;;;;14.30;94.00;;;;;;4991919;28;19913;-69
2022/10/15 10:19:41;;;;;;;;;;;14.40;94.00;;;;;;4994242;28;19953;-69
2022/10/15 10:22:17;;;;;;;;;;;14.40;93.80;;;;;;4995058;28;19992;-69
2022/10/15 10:24:43;;;;;;;;;;;14.50;93.80;;;;;;5000283;28;20454;-69
2022/10/15 10:27:21;;;;;;;;;;;14.50;94.00;;;;;;5000638;28;19924;-69
2022/10/15 10:29:58;;;;;;;;;;;14.60;94.10;;;;;;4991676;28;20252;-69
2022/10/15 10:32:29;;;;;;;;;;;14.60;93.70;;;;;;4994305;28;20470;-68
2022/10/15 10:34:55;;;;;;;;;;;14.60;93.70;;;;;;4996116;28;19921;-69
2022/10/15 10:37:21;;;;;;;;;;;14.70;93.70;;;;;;4994995;28;19918;-69
2022/10/15 10:39:51;;;;;;;;;;;14.70;94.10;;;;;;4992664;28;19921;-69
2022/10/15 10:42:17;;;;;;;;;;;14.70;93.50;;;;;;4989501;28;20336;-69
2022/10/15 10:44:45;;;;;;;;;;;14.80;93.70;;;;;;4996411;28;19940;-69
2022/10/15 10:47:15;;;;;;;;;;;14.80;93.70;;;;;;4991664;28;19920;-69
2022/10/15 10:49:46;;;;;;;;;;;14.80;93.50;;;;;;4997300;28;20334;-69
2022/10/15 10:52:25;;;;;;;;;;;14.80;93.50;;;;;;4989701;28;19918;-69
2022/10/15 10:55:00;;;;;;;;;;;14.90;93.70;;;;;;4990471;28;19917;-69
2022/10/15 10:57:31;;;;;;;;;;;14.90;93.50;;;;;;4992632;28;19917;-69
2022/10/15 10:59:56;;;;;;;;;;;15.00;93.70;;;;;;4998214;28;20617;-69
2022/10/15 11:02:22;;;;;;;;;;;15.00;93.60;;;;;;4992921;28;19924;-70
2022/10/15 11:04:48;;;;;;;;;;;15.00;93.70;;;;;;4994016;28;19918;-69
2022/10/15 11:07:17;;;;;;;;;;;15.00;93.80;;;;;;4990056;28;19957;-69
2022/10/15 11:09:50;;;;;;;;;;;15.00;93.70;;;;;;4997624;28;20016;-70
2022/10/15 11:12:43;;;;;;;;;;;15.00;93.40;;;;;;4992758;28;19925;-69
2022/10/15 11:15:23;;;;;;;;;;;15.00;93.80;;;;;;4986363;28;20577;-69
2022/10/15 11:17:58;;;;;;;;;;;15.10;93.80;;;;;;4991600;28;19964;-69
2022/10/15 11:20:42;;;;;;;;;;;15.10;93.70;;;;;;4994628;28;19913;-70
2022/10/15 11:23:19;;;;;;;;;;;15.10;93.50;;;;;;4989178;28;19918;-70
2022/10/15 11:25:45;;;;;;;;;;;15.10;93.60;;;;;;4997478;28;20552;-70
2022/10/15 11:28:29;;;;;;;;;;;15.10;93.80;;;;;;4987595;28;19918;-69
2022/10/15 11:31:10;;;;;;;;;;;15.20;93.90;;;;;;4988689;28;20418;-69
2022/10/15 11:33:54;;;;;;;;;;;15.20;94.00;;;;;;4994775;28;19952;-69
2022/10/15 11:36:31;;;;;;;;;;;15.30;94.00;;;;;;4994509;28;20370;-69
2022/10/15 11:39:10;;;;;;;;;;;15.30;93.90;;;;;;4988013;28;19993;-69
2022/10/15 11:41:35;;;;;;;;;;;15.40;93.90;;;;;;4989693;28;19932;-69
2022/10/15 11:44:01;;;;;;;;;;;15.40;93.60;;;;;;4993631;28;20291;-69
2022/10/15 11:46:38;;;;;;;;;;;15.50;93.80;;;;;;4995052;28;19968;-69
2022/10/15 11:49:19;;;;;;;;;;;15.50;94.00;;;;;;4993402;28;20343;-70
2022/10/15 11:51:44;;;;;;;;;;;15.50;93.70;;;;;;5002824;28;20282;-69
2022/10/15 11:54:16;;;;;;;;;;;15.50;93.80;;;;;;4989353;28;19922;-70
2022/10/15 11:56:44;;;;;;;;;;;15.60;93.70;;;;;;4993804;28;19914;-70
2022/10/15 11:59:16;;;;;;;;;;;15.60;93.60;;;;;;4993628;28;20485;-69
2022/10/15 12:01:45;;;;;;;;;;;15.70;93.80;;;;;;4995165;28;19964;-70
2022/10/15 12:04:13;;;;;;;;;;;15.70;94.10;;;;;;4995459;28;20430;-69
2022/10/15 12:06:42;;;;;;;;;;;15.80;93.60;;;;;;4993923;28;19925;-69
2022/10/15 12:09:12;;;;;;;;;;;15.80;94.00;;;;;;4993405;28;19917;-69
2022/10/15 12:11:37;;;;;;;;;;;15.80;93.80;;;;;;4993233;28;19961;-70
2022/10/15 12:14:15;;;;;;;;;;;15.80;93.60;;;;;;4989814;28;20000;-70
2022/10/15 12:16:53;;;;;;;;;;;15.80;93.90;;;;;;4998880;28;19913;-69
2022/10/15 12:19:20;;;;;;;;;;;15.80;94.00;;;;;;4994750;28;20852;-69
2022/10/15 12:21:55;;;;;;;;;;;15.80;93.80;;;;;;4996005;28;19914;-70
2022/10/15 12:24:51;;;;;;;;;;;15.80;93.90;;;;;;4989003;28;19940;-70
2022/10/15 12:27:19;;;;;;;;;;;15.90;94.00;;;;;;4981604;28;19918;-69
2022/10/15 12:29:44;;;;;;;;;;;15.90;93.80;;;;;;4985057;28;19921;-69
2022/10/15 12:32:21;;;;;;;;;;;15.90;93.80;;;;;;4994086;28;20591;-70
2022/10/15 12:34:52;;;;;;;;;;;15.90;93.90;;;;;;4990545;28;20576;-69
2022/10/15 12:37:18;;;;;;;;;;;16.00;94.20;;;;;;4998007;28;19913;-70
2022/10/15 12:39:45;;;;;;;;;;;16.00;94.20;;;;;;4987842;28;19910;-69
2022/10/15 12:42:26;;;;;;;;;;;16.00;94.10;;;;;;4988704;28;19922;-69
2022/10/15 12:44:52;;;;;;;;;;;16.00;93.90;;;;;;4984637;28;19920;-70
2022/10/15 12:47:50;;;;;;;;;;;16.00;94.00;;;;;;4992520;28;19910;-70
2022/10/15 12:50:17;;;;;;;;;;;16.10;94.00;;;;;;4953217;28;20651;-69
2022/10/15 12:52:50;;;;;;;;;;;16.10;93.90;;;;;;4990264;28;20278;-69
2022/10/15 12:55:27;;;;;;;;;;;16.10;94.10;;;;;;4988163;28;20654;-70
2022/10/15 12:57:52;;;;;;;;;;;16.10;94.00;;;;;;4991724;28;19963;-70
2022/10/15 13:00:27;;;;;;;;;;;16.10;94.10;;;;;;4988213;28;19957;-69
2022/10/15 13:02:53;;;;;;;;;;;16.10;93.70;;;;;;5010125;28;19918;-69
2022/10/15 13:05:26;;;;;;;;;;;16.20;93.90;;;;;;4997566;28;19917;-69
2022/10/15 13:07:53;;;;;;;;;;;16.10;93.90;;;;;;4989685;28;19944;-69
2022/10/15 13:10:26;;;;;;;;;;;16.10;94.10;;;;;;4992566;28;20295;-69
2022/10/15 13:13:00;;;;;;;;;;;16.10;93.90;;;;;;4984869;28;19918;-70
2022/10/15 13:15:28;;;;;;;;;;;16.20;94.00;;;;;;4988633;28;20141;-70
2022/10/15 13:17:54;;;;;;;;;;;16.20;94.10;;;;;;4985013;28;20382;-70
2022/10/15 13:20:23;;;;;;;;;;;16.20;94.30;;;;;;4995614;28;20011;-69
2022/10/15 13:22:48;;;;;;;;;;;16.20;94.80;;;;;;4994763;28;19922;-69
2022/10/15 13:25:15;;;;;;;;;;;16.20;94.30;;;;;;4995093;28;19910;-69
2022/10/15 13:27:40;;;;;;;;;;;16.30;94.30;;;;;;4983962;28;19918;-69
2022/10/15 13:30:15;;;;;;;;;;;16.30;94.30;;;;;;4993884;28;19940;-69
2022/10/15 13:32:51;;;;;;;;;;;16.40;94.30;;;;;;4987430;28;19921;-70
2022/10/15 13:35:18;;;;;;;;;;;16.40;94.50;;;;;;4992808;28;19917;-69
2022/10/15 13:37:45;;;;;;;;;;;16.50;94.50;;;;;;4990410;28;19924;-70
2022/10/15 13:40:17;;;;;;;;;;;16.50;94.40;;;;;;4992154;28;19913;-70
2022/10/15 13:42:56;;;;;;;;;;;16.50;94.40;;;;;;4983672;28;20010;-70
2022/10/15 13:45:22;;;;;;;;;;;16.60;94.00;;;;;;4994850;28;19914;-69
2022/10/15 13:47:48;;;;;;;;;;;16.70;94.20;;;;;;4985124;28;20012;-69
2022/10/15 13:50:22;;;;;;;;;;;16.70;93.90;;;;;;4988421;28;19961;-69
2022/10/15 13:53:02;;;;;;;;;;;16.70;94.10;;;;;;4987998;28;19940;-70
2022/10/15 13:55:35;;;;;;;;;;;16.70;94.10;;;;;;4990513;28;19925;-69
2022/10/15 13:58:16;;;;;;;;;;;16.80;94.10;;;;;;4989891;28;20075;-70
2022/10/15 14:00:42;;;;;;;;;;;16.80;93.90;;;;;;4986945;28;19924;-70
2022/10/15 14:03:08;;;;;;;;;;;16.80;94.40;;;;;;4994213;28;19921;-70
2022/10/15 14:05:34;;;;;;;;;;;16.80;94.00;;;;;;4995196;28;19948;-70
2022/10/15 14:08:00;;;;;;;;;;;16.80;94.50;;;;;;4989304;28;20004;-70
2022/10/15 14:10:26;;;;;;;;;;;16.90;94.70;;;;;;4988293;28;19921;-69
2022/10/15 14:12:51;;;;;;;;;;;16.90;94.40;;;;;;4989388;28;19917;-69
2022/10/15 14:15:36;;;;;;;;;;;16.90;94.60;;;;;;4985576;28;19937;-69
2022/10/15 14:18:01;;;;;;;;;;;16.90;95.00;;;;;;4995375;28;19918;-69
2022/10/15 14:20:27;;;;;;;;;;;16.90;94.80;;;;;;4987776;28;20019;-70
2022/10/15 14:22:53;;;;;;;;;;;16.80;94.90;;;;;;4993029;28;20351;-70